map of GUA home
GUA - Airport
Location
City:  Guatemala City, Guatemala, Guatemala
Name:La Aurora International Airport
ICAO:MGGT
IATA:GUA

Details
Type:Airport (Aerodrome, Airfield)
Use:Public/Civil, Military, International (customs port of entry)
Latitude:1435'00"N (14.583272)
Longitude:9031'39"W (-90.527474)
Datum:WGS 1984
Elevation:4952 ft (1509 m)
Variation:1.07E (WMM2015 magnetic declination)
-0.14 annual change
Runways:1
Longest:9800 × 196 ft (2987 × 59.5 m), paved

Time
Time Zone:UTC-6
Local Time:

Weather
METAR:MGGT 152100Z VRB05KT 9999 SCT022TCU 24/15 Q1022 A3018 TCU S
TAF:MGGT 151100Z 1512/1612 VRB03KT 3000 BR OVC004 TX25/1520Z TN11/1512Z
BECMG 1515/1517 06008KT 8000 FEW018
BECMG 1520/1522 18008KT SCT020
BECMG 1601/1603 03008KT SCT016 = TAF MGPB 151100Z 1512/1612 00000KT 9999 SCT016 OVC080 TX28/1520Z TN18/1512Z
BECMG 1515/1517 04008KT SCT018
BECMG 1520/1522 SCT020 SCT090
BECMG 1600/1602 00000KT SCT016

Related Locations
Nearby:
Farthest:CCK: 11925 mi / 19192 km
West Island (Pulau Panjang) [Cocos (Keeling) Islands], CC

Find:

   beyond  
but within

Other Information
Maps:
NOTAMs:
Links:
Sources:

  
flag of Guatemala
flag of Guatemala
  

Sectional Chart

Flight Planning
at skyvector.com

Satellite Image

Google Maps Satellite view

 

Copyright © 2004-2017 Karl L. Swartz. All rights reserved.
The Great Circle Mapper name and logo are trademarks of the Great Circle Mapper.
All other trademarks mentioned herein belong to their respective owners.
Please see credits for attibutions and further copyright information.

  Follow gcmap on Facebook Follow gcmap on Twitter Follow gcmap on Google+ GCmap on LinkedIn

hCard Microformat

Geo Microformat